Time;durP1;ratioP1;P1;durP2;ratioP2;P2;SDS_P1;SDS_P2;PMS_P1;PMS_P2;Temp;Humidity;BMP_temperature;BMP_pressure;BME280_temperature;BME280_humidity;BME280_pressure;Samples;Min_cycle;Max_cycle;Signal;HPM_P1;HPM_P2
2022/11/14 00:02:18;;;;;;;31.27;17.50;;;12.10;99.90;;;;;;5077204;28;20024;-73
2022/11/14 00:04:47;;;;;;;32.60;18.45;;;12.20;99.90;;;;;;5089428;28;20458;-73
2022/11/14 00:07:13;;;;;;;37.33;19.52;;;12.20;99.90;;;;;;5077976;28;20097;-73
2022/11/14 00:09:41;;;;;;;34.05;19.15;;;12.30;99.90;;;;;;5078479;28;20543;-73
2022/11/14 00:12:11;;;;;;;32.80;19.05;;;12.20;99.90;;;;;;5080751;28;20317;-74
2022/11/14 00:14:37;;;;;;;35.33;19.38;;;12.20;99.90;;;;;;5073687;28;20039;-73
2022/11/14 00:17:03;;;;;;;31.63;18.35;;;12.20;99.90;;;;;;5097978;28;20028;-73
2022/11/14 00:19:30;;;;;;;34.97;18.58;;;12.20;99.90;;;;;;5096783;28;20092;-73
2022/11/14 00:21:56;;;;;;;36.13;17.52;;;12.20;99.90;;;;;;5097381;28;20031;-74
2022/11/14 00:24:22;;;;;;;31.50;18.05;;;12.20;99.90;;;;;;5093928;28;20035;-73
2022/11/14 00:26:47;;;;;;;38.83;20.10;;;12.30;99.90;;;;;;5096582;28;20549;-73
2022/11/14 00:29:14;;;;;;;37.67;19.25;;;12.20;99.90;;;;;;5077457;28;20066;-73
2022/11/14 00:31:40;;;;;;;32.80;19.30;;;12.20;99.90;;;;;;5096465;28;20101;-74
2022/11/14 00:34:06;;;;;;;29.80;17.38;;;12.20;99.90;;;;;;5094052;28;20067;-73
2022/11/14 00:36:32;;;;;;;37.15;19.45;;;12.30;99.90;;;;;;5099136;28;20027;-73
2022/11/14 00:38:58;;;;;;;34.05;17.90;;;12.30;99.90;;;;;;5098042;28;20478;-73
2022/11/14 00:41:24;;;;;;;40.38;19.60;;;12.30;99.90;;;;;;5079182;28;20447;-73
2022/11/14 00:43:50;;;;;;;43.33;21.13;;;12.30;99.90;;;;;;5098820;28;20179;-73
2022/11/14 00:46:16;;;;;;;37.58;20.60;;;12.20;99.90;;;;;;5077774;28;20031;-73
2022/11/14 00:48:41;;;;;;;45.20;20.00;;;12.30;99.90;;;;;;5097440;28;20122;-74
2022/11/14 00:51:07;;;;;;;37.70;19.35;;;12.30;99.90;;;;;;5096298;28;20127;-74
2022/11/14 00:53:33;;;;;;;35.55;19.88;;;12.30;99.90;;;;;;5098422;28;20031;-73
2022/11/14 00:55:58;;;;;;;38.20;20.48;;;12.40;99.90;;;;;;5095792;28;20027;-74
2022/11/14 00:58:24;;;;;;;33.03;18.58;;;12.40;99.90;;;;;;5097130;28;20480;-74
2022/11/14 01:00:51;;;;;;;40.03;21.15;;;12.40;99.90;;;;;;5095161;28;20027;-73
2022/11/14 01:03:17;;;;;;;41.58;20.08;;;12.40;99.90;;;;;;5095804;28;20390;-74
2022/11/14 01:05:46;;;;;;;31.77;19.13;;;12.40;99.90;;;;;;5094402;28;20027;-74
2022/11/14 01:08:13;;;;;;;34.50;19.95;;;12.40;99.90;;;;;;5095872;28;20044;-73
2022/11/14 01:10:41;;;;;;;31.95;18.75;;;12.50;99.90;;;;;;5093613;28;20162;-74
2022/11/14 01:13:07;;;;;;;31.15;18.98;;;12.50;99.90;;;;;;5096695;28;20347;-74
2022/11/14 01:15:32;;;;;;;34.83;19.60;;;12.60;99.90;;;;;;5095776;28;20032;-73
2022/11/14 01:17:58;;;;;;;34.92;19.08;;;12.60;99.80;;;;;;5078365;28;20032;-74
2022/11/14 01:20:24;;;;;;;34.35;18.90;;;12.60;99.90;;;;;;5096544;28;20147;-74
2022/11/14 01:22:49;;;;;;;33.53;18.80;;;12.60;99.90;;;;;;5077346;28;20028;-73
2022/11/14 01:25:15;;;;;;;33.33;18.25;;;12.70;99.70;;;;;;5089459;28;20371;-74
2022/11/14 01:27:40;;;;;;;35.65;20.17;;;12.70;99.40;;;;;;5091367;28;20115;-73
2022/11/14 01:30:06;;;;;;;40.40;21.33;;;12.60;99.20;;;;;;5094208;28;20024;-73
2022/11/14 01:32:32;;;;;;;42.03;21.15;;;12.50;99.50;;;;;;5095229;28;20075;-74
2022/11/14 01:34:58;;;;;;;42.03;21.73;;;12.40;99.70;;;;;;5095759;28;20592;-74
2022/11/14 01:37:23;;;;;;;46.38;23.30;;;12.30;99.90;;;;;;5093347;28;20027;-75
2022/11/14 01:39:49;;;;;;;45.42;22.70;;;12.30;99.90;;;;;;5095443;28;20330;-73
2022/11/14 01:42:15;;;;;;;53.53;23.13;;;12.30;99.90;;;;;;5096971;28;20184;-73
2022/11/14 01:44:52;;;;;;;49.90;23.60;;;12.20;99.90;;;;;;5091611;28;20035;-73
2022/11/14 01:47:29;;;;;;;52.83;25.02;;;12.20;99.90;;;;;;5090941;28;20063;-73
2022/11/14 01:50:00;;;;;;;48.42;24.70;;;12.20;99.90;;;;;;5096286;28;20023;-73
2022/11/14 01:52:38;;;;;;;58.47;25.40;;;12.20;99.90;;;;;;5096972;28;20600;-74
2022/11/14 01:55:07;;;;;;;64.75;27.98;;;12.20;99.90;;;;;;5074414;28;20115;-74
2022/11/14 01:57:37;;;;;;;66.35;28.00;;;12.10;99.90;;;;;;5092502;28;20107;-73
2022/11/14 02:00:09;;;;;;;65.65;28.15;;;12.10;99.90;;;;;;5093157;28;20119;-74
2022/11/14 02:02:37;;;;;;;75.55;28.92;;;12.20;99.90;;;;;;5098009;28;20063;-73
2022/11/14 02:05:09;;;;;;;60.85;27.25;;;12.20;99.90;;;;;;5076636;28;20131;-73
2022/11/14 02:07:38;;;;;;;69.05;26.95;;;12.20;99.90;;;;;;5092240;28;20043;-73
2022/11/14 02:10:14;;;;;;;77.68;27.33;;;12.20;99.90;;;;;;5097616;28;20058;-73
2022/11/14 02:12:40;;;;;;;65.80;26.30;;;12.30;99.90;;;;;;5096919;28;20043;-73
2022/11/14 02:15:06;;;;;;;58.47;27.60;;;12.20;99.90;;;;;;5095651;28;20509;-74
2022/11/14 02:17:32;;;;;;;54.45;25.63;;;12.30;99.90;;;;;;5095310;28;20023;-73
2022/11/14 02:20:10;;;;;;;50.70;23.50;;;12.40;99.90;;;;;;5096684;28;20035;-73
2022/11/14 02:22:40;;;;;;;46.05;22.23;;;12.50;99.90;;;;;;5096300;28;20110;-74
2022/11/14 02:25:07;;;;;;;49.10;23.77;;;12.50;99.90;;;;;;5091974;28;20039;-73
2022/11/14 02:27:33;;;;;;;47.35;23.38;;;12.60;99.90;;;;;;5094388;28;20062;-73
2022/11/14 02:30:14;;;;;;;38.75;20.65;;;12.70;99.90;;;;;;5097335;28;20019;-73
2022/11/14 02:32:40;;;;;;;42.85;22.02;;;12.70;99.90;;;;;;5079149;28;20510;-73
2022/11/14 02:35:06;;;;;;;41.40;21.60;;;12.70;99.90;;;;;;5096854;28;20039;-73
2022/11/14 02:37:32;;;;;;;42.67;21.13;;;12.70;99.90;;;;;;5075439;28;20502;-73
2022/11/14 02:39:57;;;;;;;38.47;20.33;;;12.70;99.90;;;;;;5077484;28;20032;-74
2022/11/14 02:42:23;;;;;;;39.88;20.27;;;12.80;99.90;;;;;;5080508;28;20038;-74
2022/11/14 02:44:49;;;;;;;38.53;19.75;;;12.80;99.90;;;;;;5081368;28;20455;-73
2022/11/14 02:47:14;;;;;;;39.15;20.73;;;12.80;99.70;;;;;;5099960;28;20032;-73
2022/11/14 02:49:40;;;;;;;34.05;20.00;;;12.70;99.70;;;;;;5100614;28;20107;-73
2022/11/14 02:52:06;;;;;;;36.70;19.75;;;12.80;99.90;;;;;;5103053;28;20093;-73
2022/11/14 02:54:31;;;;;;;33.25;20.02;;;12.80;99.70;;;;;;5102010;28;20038;-73
2022/11/14 02:56:57;;;;;;;34.22;19.27;;;12.90;99.60;;;;;;5085878;28;20032;-73
2022/11/14 02:59:22;;;;;;;37.92;19.48;;;12.90;99.20;;;;;;5091902;28;20104;-73
2022/11/14 03:01:48;;;;;;;31.08;18.77;;;12.90;99.00;;;;;;5097357;28;20104;-73
2022/11/14 03:04:13;;;;;;;36.58;20.38;;;12.90;98.90;;;;;;5097616;28;20044;-73
2022/11/14 03:06:39;;;;;;;37.08;18.60;;;12.80;99.10;;;;;;5094172;28;20031;-73
2022/11/14 03:09:05;;;;;;;30.33;18.08;;;12.80;99.40;;;;;;5094490;28;20134;-73
2022/11/14 03:11:30;;;;;;;30.17;17.50;;;12.80;99.20;;;;;;5099683;28;20035;-73
2022/11/14 03:13:57;;;;;;;35.28;18.23;;;12.90;99.00;;;;;;5093775;28;20441;-72
2022/11/14 03:16:23;;;;;;;32.22;17.63;;;12.90;98.80;;;;;;5085695;28;20402;-73
2022/11/14 03:18:48;;;;;;;36.25;19.00;;;13.00;98.70;;;;;;5098109;28;20027;-73
2022/11/14 03:21:17;;;;;;;35.25;20.15;;;12.90;98.50;;;;;;5076533;28;20687;-73
2022/11/14 03:23:43;;;;;;;34.28;19.60;;;12.70;99.00;;;;;;5073943;28;20372;-74
2022/11/14 03:26:10;;;;;;;36.70;18.67;;;12.70;99.20;;;;;;5084208;28;20035;-73
2022/11/14 03:28:37;;;;;;;31.00;19.08;;;12.80;99.30;;;;;;5096565;28;20406;-73
2022/11/14 03:31:03;;;;;;;37.58;19.05;;;12.80;99.10;;;;;;5096011;28;20386;-73
2022/11/14 03:33:30;;;;;;;33.10;18.40;;;12.90;99.00;;;;;;5093760;28;20023;-74
2022/11/14 03:35:56;;;;;;;28.00;16.67;;;12.90;98.90;;;;;;5099271;28;20020;-74
2022/11/14 03:38:22;;;;;;;30.85;17.58;;;12.90;98.90;;;;;;5093799;28;20024;-73
2022/11/14 03:40:49;;;;;;;32.45;18.45;;;13.00;98.70;;;;;;5098970;28;20046;-73
2022/11/14 03:43:16;;;;;;;28.92;16.52;;;13.00;98.50;;;;;;5095590;28;20031;-74
2022/11/14 03:45:41;;;;;;;31.23;18.23;;;13.00;98.50;;;;;;5096815;28;20035;-73
2022/11/14 03:48:07;;;;;;;34.55;18.40;;;12.90;98.50;;;;;;5097384;28;20039;-73
2022/11/14 03:50:33;;;;;;;33.35;18.10;;;12.90;98.70;;;;;;5098155;28;20371;-73
2022/11/14 03:52:59;;;;;;;41.85;21.23;;;12.80;98.70;;;;;;5097516;28;20031;-74
2022/11/14 03:55:24;;;;;;;38.40;19.55;;;12.70;98.90;;;;;;5099379;28;20466;-73
2022/11/14 03:57:50;;;;;;;44.60;22.90;;;12.60;99.20;;;;;;5097196;28;20038;-73
2022/11/14 04:00:16;;;;;;;38.03;20.10;;;12.50;99.40;;;;;;5098141;28;20030;-73
2022/11/14 04:02:41;;;;;;;34.55;19.52;;;12.60;99.60;;;;;;5095152;28;20043;-73
2022/11/14 04:05:08;;;;;;;38.30;19.20;;;12.70;99.60;;;;;;5097399;28;20132;-73
2022/11/14 04:07:33;;;;;;;37.03;20.42;;;12.70;99.30;;;;;;5097001;28;20240;-74
2022/11/14 04:09:59;;;;;;;36.05;19.77;;;12.60;99.30;;;;;;5098112;28;20032;-73
2022/11/14 04:12:25;;;;;;;37.75;20.58;;;12.70;99.40;;;;;;5099631;28;20083;-74
2022/11/14 04:14:51;;;;;;;35.20;18.75;;;12.70;99.40;;;;;;5096233;28;20046;-73
2022/11/14 04:17:16;;;;;;;36.30;20.77;;;12.70;99.50;;;;;;5098264;28;20027;-73
2022/11/14 04:19:42;;;;;;;42.25;20.00;;;12.70;99.50;;;;;;5098132;28;20028;-73
2022/11/14 04:22:07;;;;;;;35.72;20.08;;;12.70;99.70;;;;;;5098089;28;20437;-73
2022/11/14 04:24:33;;;;;;;33.92;19.35;;;12.70;99.40;;;;;;5098091;28;20122;-73
2022/11/14 04:26:59;;;;;;;41.80;20.50;;;12.70;99.40;;;;;;5076038;28;20495;-73
2022/11/14 04:29:25;;;;;;;34.33;19.02;;;12.70;99.40;;;;;;5096957;28;20061;-73
2022/11/14 04:31:50;;;;;;;34.63;17.98;;;12.70;99.50;;;;;;5096709;28;20032;-73
2022/11/14 04:34:16;;;;;;;35.30;18.35;;;12.70;99.50;;;;;;5096038;28;20387;-73
2022/11/14 04:36:41;;;;;;;37.45;20.33;;;12.80;99.20;;;;;;5097464;28;20378;-73
2022/11/14 04:39:07;;;;;;;42.42;20.80;;;12.70;99.10;;;;;;5098257;28;20039;-73
2022/11/14 04:41:33;;;;;;;45.97;22.42;;;12.60;99.30;;;;;;5096578;28;20023;-73
2022/11/14 04:43:58;;;;;;;39.92;21.08;;;12.50;99.50;;;;;;5096468;28;20039;-73
2022/11/14 04:46:24;;;;;;;41.15;21.15;;;12.60;99.70;;;;;;5096298;28;20074;-74
2022/11/14 04:48:50;;;;;;;39.75;21.42;;;12.60;99.80;;;;;;5079268;28;20027;-73
2022/11/14 04:51:15;;;;;;;35.67;19.13;;;12.70;99.80;;;;;;5095800;28;20031;-73
2022/11/14 04:53:41;;;;;;;42.90;21.10;;;12.70;99.60;;;;;;5097226;28;20127;-73
2022/11/14 04:56:07;;;;;;;41.13;20.70;;;12.70;99.60;;;;;;5097548;28;20406;-73
2022/11/14 04:58:32;;;;;;;41.80;21.85;;;12.70;99.60;;;;;;5095055;28;20035;-73
2022/11/14 05:00:58;;;;;;;47.30;21.42;;;12.60;99.60;;;;;;5092680;28;20019;-73
2022/11/14 05:03:24;;;;;;;45.63;22.80;;;12.60;99.80;;;;;;5094982;28;20411;-73
2022/11/14 05:05:50;;;;;;;54.28;24.48;;;12.60;99.90;;;;;;5094185;28;20042;-73
2022/11/14 05:08:16;;;;;;;45.92;24.58;;;12.50;99.90;;;;;;5096204;28;20040;-74
2022/11/14 05:10:45;;;;;;;50.38;23.45;;;12.50;99.90;;;;;;5084043;28;20549;-73
2022/11/14 05:13:11;;;;;;;44.47;23.15;;;12.50;99.90;;;;;;5097021;28;20088;-73
2022/11/14 05:15:37;;;;;;;52.70;25.05;;;12.40;99.90;;;;;;5093385;28;20212;-73
2022/11/14 05:18:03;;;;;;;46.97;23.90;;;12.50;99.90;;;;;;5092868;28;20507;-73
2022/11/14 05:20:28;;;;;;;49.85;24.17;;;12.40;99.90;;;;;;5093303;28;20070;-73
2022/11/14 05:22:55;;;;;;;51.28;25.42;;;12.40;99.90;;;;;;5097091;28;20031;-73
2022/11/14 05:25:21;;;;;;;50.17;24.00;;;12.40;99.90;;;;;;5095621;28;20088;-73
2022/11/14 05:27:47;;;;;;;48.95;24.25;;;12.40;99.90;;;;;;5095830;28;20237;-74
2022/11/14 05:30:13;;;;;;;45.97;23.90;;;12.40;99.90;;;;;;5092673;28;20046;-74
2022/11/14 05:32:39;;;;;;;46.08;22.73;;;12.50;99.90;;;;;;5092784;28;20055;-73
2022/11/14 05:35:05;;;;;;;45.42;22.85;;;12.50;99.90;;;;;;5091440;28;20143;-73
2022/11/14 05:37:32;;;;;;;45.40;23.00;;;12.60;99.90;;;;;;5094715;28;20514;-73
2022/11/14 05:39:58;;;;;;;48.95;23.10;;;12.60;99.90;;;;;;5094367;28;20030;-73
2022/11/14 05:42:23;;;;;;;37.70;21.75;;;12.60;99.90;;;;;;5095444;28;20035;-73
2022/11/14 05:44:49;;;;;;;42.75;23.63;;;12.60;99.90;;;;;;5095656;28;20124;-73
2022/11/14 05:47:15;;;;;;;38.35;21.40;;;12.50;99.90;;;;;;5095247;28;20616;-73
2022/11/14 05:49:40;;;;;;;36.75;21.10;;;12.60;99.90;;;;;;5094659;28;20039;-73
2022/11/14 05:52:06;;;;;;;35.80;21.15;;;12.70;99.90;;;;;;5072718;28;20702;-74
2022/11/14 05:54:31;;;;;;;41.47;21.52;;;12.70;99.90;;;;;;5089826;28;20035;-73
2022/11/14 05:56:57;;;;;;;32.75;20.13;;;12.60;99.90;;;;;;5097144;28;20023;-74
2022/11/14 05:59:23;;;;;;;42.60;22.20;;;12.70;99.90;;;;;;5084810;28;20024;-73
2022/11/14 06:01:48;;;;;;;34.58;19.13;;;12.70;99.90;;;;;;5091959;28;20024;-73
2022/11/14 06:04:14;;;;;;;33.70;18.73;;;12.80;99.90;;;;;;5032950;28;1113953;-74
2022/11/14 06:06:40;;;;;;;32.45;17.92;;;12.80;99.90;;;;;;5092006;28;20028;-73
2022/11/14 06:09:05;;;;;;;32.00;17.73;;;12.90;99.90;;;;;;5085836;28;20406;-73
2022/11/14 06:11:31;;;;;;;27.45;17.30;;;13.00;99.50;;;;;;5097775;28;20110;-73
2022/11/14 06:13:57;;;;;;;28.30;17.98;;;13.00;99.20;;;;;;5096510;28;20081;-73
2022/11/14 06:16:23;;;;;;;29.25;18.02;;;13.00;98.90;;;;;;5098243;28;20503;-74
2022/11/14 06:18:52;;;;;;;28.52;17.05;;;13.00;98.80;;;;;;5096316;28;20085;-74
2022/11/14 06:21:20;;;;;;;24.52;17.00;;;13.00;98.80;;;;;;5096974;28;20254;-73
2022/11/14 06:23:46;;;;;;;29.98;17.15;;;13.00;98.70;;;;;;5096181;28;20027;-74
2022/11/14 06:26:31;;;;;;;26.70;16.35;;;13.00;98.70;;;;;;5097207;28;20107;-73
2022/11/14 06:28:58;;;;;;;24.70;15.65;;;13.00;98.60;;;;;;5095456;28;20392;-73
2022/11/14 06:31:24;;;;;;;24.33;15.50;;;13.00;98.40;;;;;;5091946;28;20024;-73
2022/11/14 06:33:50;;;;;;;25.88;16.50;;;13.00;98.40;;;;;;5095939;28;21447;-74
2022/11/14 06:36:16;;;;;;;26.52;17.80;;;12.90;98.40;;;;;;5097210;28;20023;-72
2022/11/14 06:38:43;;;;;;;26.95;16.45;;;12.90;98.40;;;;;;5096570;28;20298;-73
2022/11/14 06:41:26;;;;;;;29.92;16.70;;;12.90;98.40;;;;;;5094964;28;20112;-74
2022/11/14 06:43:53;;;;;;;26.27;16.52;;;13.00;98.30;;;;;;5094323;28;20031;-74
2022/11/14 06:46:20;;;;;;;22.25;16.35;;;13.00;98.20;;;;;;5095964;28;20073;-73
2022/11/14 06:48:47;;;;;;;23.77;15.98;;;13.00;98.10;;;;;;5097746;28;20138;-73
2022/11/14 06:51:14;;;;;;;25.88;15.63;;;13.00;98.20;;;;;;5097214;28;20045;-73
2022/11/14 06:53:40;;;;;;;26.50;16.17;;;13.00;98.10;;;;;;5095661;28;20514;-74
2022/11/14 06:56:10;;;;;;;25.17;15.88;;;13.00;98.00;;;;;;5097024;28;20115;-73
2022/11/14 06:58:38;;;;;;;27.53;16.40;;;13.00;98.00;;;;;;5094502;28;20039;-73
2022/11/14 07:01:26;;;;;;;26.10;16.30;;;12.90;98.00;;;;;;5094489;28;20034;-73
2022/11/14 07:03:51;;;;;;;27.13;16.30;;;12.80;98.30;;;;;;5091443;28;20048;-73
2022/11/14 07:06:23;;;;;;;27.67;16.70;;;12.70;98.40;;;;;;5096311;28;20035;-73
2022/11/14 07:08:50;;;;;;;24.10;15.88;;;12.80;98.50;;;;;;5096885;28;20042;-74
2022/11/14 07:11:21;;;;;;;26.77;17.08;;;12.80;98.60;;;;;;5098122;28;20650;-73
2022/11/14 07:13:56;;;;;;;24.67;16.58;;;12.90;98.60;;;;;;5096144;28;20031;-73
2022/11/14 07:16:30;;;;;;;27.73;17.65;;;12.90;98.50;;;;;;5085161;28;20031;-73
2022/11/14 07:18:59;;;;;;;47.58;19.95;;;12.90;98.50;;;;;;5085112;28;20027;-73
2022/11/14 07:21:27;;;;;;;33.55;19.13;;;12.80;98.70;;;;;;5090456;28;20032;-73
2022/11/14 07:23:53;;;;;;;35.97;18.85;;;12.70;99.20;;;;;;5080024;28;20473;-73
2022/11/14 07:26:18;;;;;;;29.38;17.58;;;12.80;99.30;;;;;;5075737;28;20084;-73
2022/11/14 07:28:44;;;;;;;56.70;18.42;;;12.90;99.20;;;;;;5077950;28;20040;-74
2022/11/14 07:31:13;;;;;;;27.70;18.20;;;12.90;99.00;;;;;;5076956;28;20142;-73
2022/11/14 07:33:39;;;;;;;29.42;18.08;;;12.90;99.00;;;;;;5077028;28;20062;-73
2022/11/14 07:36:06;;;;;;;30.73;19.45;;;13.00;99.00;;;;;;5072104;28;20107;-74
2022/11/14 07:38:32;;;;;;;55.65;19.98;;;13.00;99.10;;;;;;5096124;28;20174;-73
2022/11/14 07:41:01;;;;;;;30.95;18.35;;;13.00;98.80;;;;;;5076986;28;20031;-74
2022/11/14 07:43:27;;;;;;;34.58;19.00;;;12.90;99.00;;;;;;5087313;28;20031;-73
2022/11/14 07:45:57;;;;;;;34.15;19.45;;;13.00;99.00;;;;;;5095824;28;20066;-73
2022/11/14 07:48:22;;;;;;;36.90;20.33;;;13.00;99.10;;;;;;5078861;28;20130;-73
2022/11/14 07:50:48;;;;;;;32.28;18.73;;;13.10;99.20;;;;;;5089752;28;20030;-73
2022/11/14 07:53:15;;;;;;;36.45;19.38;;;13.20;99.00;;;;;;5095228;28;20043;-73
2022/11/14 07:55:40;;;;;;;31.90;19.45;;;13.10;98.60;;;;;;5096079;28;20030;-73
2022/11/14 07:58:06;;;;;;;32.17;18.98;;;13.10;98.80;;;;;;5092056;28;20027;-73
2022/11/14 08:00:31;;;;;;;31.10;18.20;;;13.20;98.70;;;;;;5093223;28;20028;-74
2022/11/14 08:02:57;;;;;;;33.25;19.15;;;13.20;98.70;;;;;;5092532;28;20028;-77
2022/11/14 08:05:23;;;;;;;39.13;19.40;;;13.30;98.60;;;;;;5065284;28;20411;-74
2022/11/14 08:07:52;;;;;;;33.13;18.52;;;13.20;98.30;;;;;;5086125;28;20080;-74
2022/11/14 08:10:18;;;;;;;37.53;18.33;;;13.20;98.60;;;;;;5083041;27;20023;-74
2022/11/14 08:12:45;;;;;;;56.60;19.10;;;13.30;98.40;;;;;;5079997;27;20055;-73
2022/11/14 08:15:12;;;;;;;33.75;18.17;;;13.30;98.40;;;;;;5079768;28;20063;-72
2022/11/14 08:17:39;;;;;;;36.78;18.00;;;13.40;98.50;;;;;;5079334;28;20171;-74
2022/11/14 08:20:06;;;;;;;42.95;18.60;;;13.30;98.50;;;;;;5078306;28;20864;-73
2022/11/14 08:22:31;;;;;;;34.72;18.58;;;13.30;98.40;;;;;;5080313;28;20027;-73
2022/11/14 08:24:57;;;;;;;31.60;17.58;;;13.40;98.60;;;;;;5082160;28;20035;-72
2022/11/14 08:27:23;;;;;;;41.53;18.38;;;13.50;98.50;;;;;;5094468;28;20038;-73
2022/11/14 08:29:50;;;;;;;38.88;17.80;;;13.70;98.10;;;;;;5088735;28;20144;-73
2022/11/14 08:32:16;;;;;;;37.50;17.77;;;13.80;97.70;;;;;;5080163;28;20035;-76
2022/11/14 08:34:42;;;;;;;29.60;17.63;;;13.70;97.50;;;;;;5094319;28;20100;-73
2022/11/14 08:37:08;;;;;;;36.28;18.48;;;13.80;97.60;;;;;;5088991;28;20027;-73
2022/11/14 08:39:33;;;;;;;40.53;20.33;;;13.80;97.50;;;;;;5091985;28;20545;-73
2022/11/14 08:41:59;;;;;;;33.83;18.20;;;13.80;97.50;;;;;;5090314;28;20066;-73
2022/11/14 08:44:24;;;;;;;34.38;18.58;;;13.80;97.70;;;;;;5094667;28;20039;-76
2022/11/14 08:46:50;;;;;;;34.05;17.73;;;14.00;97.60;;;;;;5095444;28;20845;-74
2022/11/14 08:49:16;;;;;;;31.15;15.90;;;14.10;97.20;;;;;;5098016;28;20038;-74
2022/11/14 08:51:41;;;;;;;30.40;18.48;;;14.20;96.90;;;;;;5095353;28;20027;-74
2022/11/14 08:54:07;;;;;;;32.17;17.95;;;14.30;96.50;;;;;;5067468;28;20115;-74
2022/11/14 08:56:32;;;;;;;32.20;17.95;;;14.40;96.70;;;;;;5090340;28;20039;-73
2022/11/14 08:58:58;;;;;;;31.17;17.27;;;14.30;96.20;;;;;;5092633;27;20066;-73
2022/11/14 09:01:24;;;;;;;31.13;17.67;;;14.50;96.30;;;;;;5088529;28;20079;-72
2022/11/14 09:03:50;;;;;;;28.55;16.30;;;14.70;95.90;;;;;;5087091;28;20067;-71
2022/11/14 09:06:15;;;;;;;29.85;16.23;;;14.90;95.30;;;;;;5090807;28;20991;-72
2022/11/14 09:08:41;;;;;;;29.95;16.48;;;15.00;94.80;;;;;;5090065;27;20541;-71
2022/11/14 09:11:07;;;;;;;28.13;16.73;;;15.20;94.10;;;;;;5092577;28;20027;-71
2022/11/14 09:13:33;;;;;;;28.08;15.63;;;15.30;93.80;;;;;;5090206;28;20184;-72
2022/11/14 09:15:59;;;;;;;31.45;17.02;;;15.40;93.90;;;;;;5087880;28;20335;-71
2022/11/14 09:18:24;;;;;;;31.17;15.93;;;15.60;93.60;;;;;;5090166;28;20042;-72
2022/11/14 09:20:50;;;;;;;29.13;15.23;;;15.80;92.90;;;;;;5090435;27;20039;-72
2022/11/14 09:23:16;;;;;;;27.95;15.65;;;16.10;92.10;;;;;;5089942;28;20171;-72
2022/11/14 09:25:41;;;;;;;22.13;13.85;;;16.40;91.40;;;;;;5088676;28;20027;-73
2022/11/14 09:28:08;;;;;;;20.23;12.82;;;16.90;90.60;;;;;;5086185;27;20031;-71
2022/11/14 09:30:35;;;;;;;21.83;13.25;;;17.50;88.80;;;;;;5082817;28;20031;-73
2022/11/14 09:33:02;;;;;;;20.73;11.93;;;18.00;85.30;;;;;;5083865;28;20108;-73
2022/11/14 09:35:29;;;;;;;17.67;11.10;;;18.60;83.20;;;;;;5090074;28;20045;-77
2022/11/14 09:38:06;;;;;;;18.80;10.60;;;19.00;80.10;;;;;;5069625;28;20020;-72
2022/11/14 09:41:08;;;;;;;15.65;10.23;;;19.20;79.70;;;;;;5082314;28;20038;-74
2022/11/14 09:43:38;;;;;;;14.65;9.73;;;19.50;78.30;;;;;;5086938;28;20479;-74
2022/11/14 09:46:11;;;;;;;16.70;10.45;;;19.70;77.20;;;;;;5084870;28;20438;-75
2022/11/14 09:48:37;;;;;;;15.60;9.20;;;19.80;77.80;;;;;;5089815;28;20040;-73
2022/11/14 09:51:08;;;;;;;15.70;9.68;;;19.90;76.70;;;;;;5088288;28;20371;-73
2022/11/14 09:53:40;;;;;;;16.48;8.80;;;19.90;76.80;;;;;;5088663;28;20455;-73
2022/11/14 09:56:11;;;;;;;14.68;8.27;;;19.70;77.40;;;;;;5092625;28;20034;-73
2022/11/14 09:58:37;;;;;;;13.50;8.60;;;19.50;76.80;;;;;;5092012;28;20028;-73
2022/11/14 10:01:10;;;;;;;12.00;8.60;;;19.40;78.80;;;;;;5084862;28;20031;-73
2022/11/14 10:03:42;;;;;;;15.10;9.10;;;19.20;78.20;;;;;;5084351;28;21638;-72
2022/11/14 10:06:43;;;;;;;18.73;9.05;;;18.70;80.20;;;;;;5081907;28;20138;-73
2022/11/14 10:09:12;;;;;;;13.77;8.38;;;18.50;81.00;;;;;;4992229;28;20046;-73
2022/11/14 10:11:51;;;;;;;17.08;7.72;;;18.20;82.60;;;;;;5079219;28;20080;-73
2022/11/14 10:14:56;;;;;;;14.35;8.88;;;18.10;84.80;;;;;;5089135;28;20072;-72
2022/11/14 10:17:49;;;;;;;20.08;8.73;;;17.90;83.90;;;;;;5089915;28;20016;-72
2022/11/14 10:20:38;;;;;;;14.25;8.73;;;17.70;86.60;;;;;;5084532;28;20032;-72
2022/11/14 10:23:36;;;;;;;13.38;8.02;;;17.70;85.80;;;;;;5090086;28;20051;-73
2022/11/14 10:26:10;;;;;;;12.60;8.13;;;17.80;85.60;;;;;;5044763;28;20487;-72
2022/11/14 10:28:53;;;;;;;17.20;8.18;;;18.10;84.70;;;;;;5092425;28;20476;-72
2022/11/14 10:31:39;;;;;;;12.43;7.68;;;19.00;80.90;;;;;;5089933;28;20048;-72
2022/11/14 10:34:27;;;;;;;12.43;6.75;;;20.20;77.60;;;;;;5092142;28;20431;-72
2022/11/14 10:36:56;;;;;;;10.85;6.38;;;20.80;73.40;;;;;;5083928;28;20559;-73
2022/11/14 10:39:40;;;;;;;11.23;6.43;;;20.70;71.30;;;;;;5077153;28;20044;-72
2022/11/14 10:42:30;;;;;;;12.13;6.60;;;20.10;72.70;;;;;;5083497;28;20080;-73
2022/11/14 10:45:10;;;;;;;8.68;6.13;;;19.50;75.30;;;;;;5089245;28;20046;-73
2022/11/14 10:47:40;;;;;;;10.50;5.93;;;19.30;76.60;;;;;;5072917;28;20048;-72
2022/11/14 10:50:30;;;;;;;10.90;5.55;;;19.90;75.20;;;;;;5094963;28;20498;-73
2022/11/14 10:53:02;;;;;;;11.77;6.45;;;20.90;70.40;;;;;;5095819;28;20035;-72
2022/11/14 10:55:28;;;;;;;7.72;5.22;;;21.90;67.00;;;;;;5091724;28;20071;-72
2022/11/14 10:57:53;;;;;;;13.73;6.35;;;22.40;65.50;;;;;;5075362;28;20111;-73
2022/11/14 11:00:24;;;;;;;10.57;5.82;;;21.80;66.90;;;;;;5076117;28;20042;-73
2022/11/14 11:02:55;;;;;;;8.15;5.50;;;22.00;67.00;;;;;;5092784;28;20028;-71
2022/11/14 11:05:22;;;;;;;;;;;23.40;61.70;;;;;;5095238;28;20084;-71
2022/11/14 11:13:39;;;;;;;9.02;5.03;;;25.50;54.10;;;;;;5099334;28;20169;-71
2022/11/14 11:16:05;;;;;;;9.38;5.93;;;24.90;54.20;;;;;;5074116;28;20502;-72
2022/11/14 11:18:33;;;;;;;10.32;5.07;;;24.10;57.50;;;;;;5096957;28;20269;-70
2022/11/14 11:21:07;;;;;;;8.45;5.55;;;23.50;59.80;;;;;;5097265;28;20024;-70
2022/11/14 11:23:33;;;;;;;10.02;5.35;;;23.10;60.70;;;;;;5096919;28;20027;-70
2022/11/14 11:26:17;;;;;;;10.27;5.63;;;22.70;64.60;;;;;;5096830;28;20401;-70
2022/11/14 11:28:59;;;;;;;9.90;5.85;;;22.10;63.40;;;;;;5096892;28;20067;-72
2022/11/14 11:31:24;;;;;;;11.65;5.82;;;21.50;66.60;;;;;;5098831;28;20023;-72
2022/11/14 11:33:50;;;;;;;15.75;9.18;;;21.10;69.40;;;;;;5098264;28;20106;-73
2022/11/14 11:36:22;;;;;;;14.23;7.13;;;20.90;71.20;;;;;;5100162;28;20591;-70
2022/11/14 11:38:48;;;;;;;15.55;8.10;;;21.00;71.40;;;;;;5100636;28;20027;-71
2022/11/14 11:41:27;;;;;;;21.40;9.98;;;20.80;69.60;;;;;;5099123;28;20043;-74
2022/11/14 11:44:03;;;;;;;14.95;6.55;;;20.70;69.60;;;;;;5083813;28;20024;-72
2022/11/14 11:46:54;;;;;;;8.60;6.05;;;20.20;72.90;;;;;;5094431;28;20072;-72
2022/11/14 11:49:33;;;;;;;13.68;5.38;;;19.60;75.60;;;;;;5091985;28;20528;-75
2022/11/14 11:52:21;;;;;;;10.18;4.57;;;19.80;76.30;;;;;;5080994;28;20024;-72
2022/11/14 11:55:08;;;;;;;10.32;5.03;;;20.70;73.70;;;;;;5099821;28;20125;-74
2022/11/14 11:57:41;;;;;;;9.90;5.22;;;21.00;70.70;;;;;;5100474;28;20544;-75
2022/11/14 12:00:16;;;;;;;8.30;4.55;;;20.90;70.00;;;;;;5093290;28;20028;-75
2022/11/14 12:02:45;;;;;;;8.93;4.63;;;20.80;68.50;;;;;;5081807;28;20600;-75
2022/11/14 12:05:16;;;;;;;7.90;4.28;;;20.60;69.50;;;;;;5095531;28;20474;-75
2022/11/14 12:07:59;;;;;;;8.15;4.38;;;20.40;70.50;;;;;;5097272;28;20398;-75
2022/11/14 12:10:29;;;;;;;8.90;4.55;;;20.50;69.90;;;;;;5094074;28;20024;-75
2022/11/14 12:13:09;;;;;;;9.40;5.27;;;20.60;70.00;;;;;;5094251;28;20373;-75
2022/11/14 12:16:10;;;;;;;13.77;6.28;;;20.90;67.00;;;;;;5092168;28;20284;-74
2022/11/14 12:18:47;;;;;;;11.48;6.13;;;20.90;68.50;;;;;;4998433;28;20085;-74
2022/11/14 12:21:41;;;;;;;10.32;4.90;;;20.50;67.90;;;;;;5093089;28;20034;-74
2022/11/14 12:24:16;;;;;;;7.32;4.65;;;20.10;70.00;;;;;;5089447;28;20027;-74
2022/11/14 12:27:09;;;;;;;9.80;5.28;;;19.50;71.50;;;;;;5090953;28;20076;-74
2022/11/14 12:29:54;;;;;;;10.90;5.55;;;19.30;73.90;;;;;;5095656;28;20139;-74
2022/11/14 12:32:30;;;;;;;9.32;4.85;;;18.80;75.30;;;;;;5095451;28;20023;-74
2022/11/14 12:34:57;;;;;;;10.25;4.50;;;18.50;76.00;;;;;;5096824;28;20031;-74
2022/11/14 12:37:33;;;;;;;8.00;4.65;;;18.30;79.20;;;;;;5085034;28;20039;-73
2022/11/14 12:40:07;;;;;;;8.00;4.82;;;18.70;80.80;;;;;;5095921;28;20162;-73
2022/11/14 12:42:34;;;;;;;8.25;4.55;;;19.20;77.10;;;;;;5086756;28;20443;-73
2022/11/14 12:44:59;;;;;;;6.53;3.60;;;19.80;76.00;;;;;;5091322;28;20044;-74
2022/11/14 12:47:27;;;;;;;8.10;3.75;;;20.10;72.50;;;;;;5096566;28;20054;-74